createdAt,value
2017-12-22T00:02:10.955Z,92.15
2017-12-22T00:04:36.724Z,92.15
2017-12-22T00:07:02.480Z,92.36
2017-12-22T00:09:28.235Z,92.42
2017-12-22T00:11:54.660Z,92.22
2017-12-22T00:14:20.425Z,92.34
2017-12-22T00:16:46.197Z,92.24
2017-12-22T00:19:11.964Z,92.48
2017-12-22T00:21:37.731Z,92.42
2017-12-22T00:24:03.490Z,92.23
2017-12-22T00:26:29.259Z,92.51
2017-12-22T00:28:55.011Z,92.45
2017-12-22T00:31:20.760Z,92.61
2017-12-22T00:33:46.508Z,92.59
2017-12-22T00:36:12.272Z,92.62
2017-12-22T00:38:38.043Z,92.79
2017-12-22T00:41:03.829Z,92.99
2017-12-22T00:43:29.580Z,93.19
2017-12-22T00:46:01.471Z,93.19
2017-12-22T00:48:27.217Z,93.16
2017-12-22T00:50:52.984Z,92.99
2017-12-22T00:53:18.748Z,93.26
2017-12-22T00:55:44.526Z,92.93
2017-12-22T00:58:10.617Z,92.99
2017-12-22T01:00:36.384Z,92.87
2017-12-22T01:03:02.168Z,92.64
2017-12-22T01:05:27.944Z,93.03
2017-12-22T01:07:53.708Z,92.88
2017-12-22T01:10:19.470Z,92.81
2017-12-22T01:12:45.232Z,92.67
2017-12-22T01:15:11.011Z,92.78
2017-12-22T01:17:42.836Z,92.64
2017-12-22T01:20:08.595Z,92.38
2017-12-22T01:22:34.363Z,92.70
2017-12-22T01:25:00.120Z,92.58
2017-12-22T01:27:25.896Z,92.72
2017-12-22T01:29:52.784Z,92.91
2017-12-22T01:32:18.547Z,92.62
2017-12-22T01:34:44.379Z,92.28
2017-12-22T01:37:10.184Z,92.33
2017-12-22T01:39:35.952Z,92.28
2017-12-22T01:42:01.733Z,92.42
2017-12-22T01:44:27.498Z,92.15
2017-12-22T01:46:53.272Z,91.90
2017-12-22T01:49:19.358Z,92.08
2017-12-22T01:51:45.097Z,92.13
2017-12-22T01:54:10.952Z,92.19
2017-12-22T01:56:36.752Z,92.23
2017-12-22T01:59:02.524Z,92.12
2017-12-22T02:01:28.293Z,92.57
2017-12-22T02:03:54.066Z,92.26
2017-12-22T02:06:19.806Z,92.24
2017-12-22T02:08:45.587Z,92.17
2017-12-22T02:11:11.347Z,92.33
2017-12-22T02:13:37.108Z,92.49
2017-12-22T02:16:02.871Z,92.41
2017-12-22T02:18:28.632Z,92.37
2017-12-22T02:20:54.405Z,92.28
2017-12-22T02:23:20.187Z,92.15
2017-12-22T02:25:45.971Z,92.35
2017-12-22T02:28:11.727Z,92.54
2017-12-22T02:30:37.470Z,92.71
2017-12-22T02:33:03.220Z,92.84
2017-12-22T02:35:28.985Z,93.07
2017-12-22T02:37:54.739Z,93.30
2017-12-22T02:40:20.509Z,93.31
2017-12-22T02:42:46.261Z,93.28
2017-12-22T02:45:12.040Z,93.17
2017-12-22T02:47:37.825Z,93.21
2017-12-22T02:50:03.593Z,93.35
2017-12-22T02:52:29.349Z,93.42
2017-12-22T02:54:55.100Z,93.45
2017-12-22T02:57:20.847Z,93.46
2017-12-22T02:59:46.604Z,93.34
2017-12-22T03:02:12.364Z,93.35
2017-12-22T03:04:38.128Z,93.41
2017-12-22T03:07:03.884Z,93.37
2017-12-22T03:09:29.648Z,93.33
2017-12-22T03:11:55.425Z,93.43
2017-12-22T03:14:21.175Z,93.46
2017-12-22T03:16:46.932Z,93.36
2017-12-22T03:19:12.691Z,93.51
2017-12-22T03:21:38.452Z,93.55
2017-12-22T03:24:04.215Z,93.55
2017-12-22T03:26:29.966Z,93.62
2017-12-22T03:28:55.711Z,93.57
2017-12-22T03:31:21.476Z,93.22
2017-12-22T03:33:47.226Z,93.27
2017-12-22T03:36:12.988Z,93.45
2017-12-22T03:38:38.739Z,93.53
2017-12-22T03:41:04.499Z,93.50
2017-12-22T03:43:30.251Z,93.46
2017-12-22T03:45:56.004Z,93.37
2017-12-22T03:48:21.750Z,93.61
2017-12-22T03:50:47.488Z,93.64
2017-12-22T03:53:13.252Z,93.74
2017-12-22T03:55:38.991Z,93.89
2017-12-22T03:58:04.752Z,93.94
2017-12-22T04:00:30.503Z,94.02
2017-12-22T04:02:56.254Z,94.09
2017-12-22T04:05:21.979Z,94.14
2017-12-22T04:07:47.725Z,94.26
2017-12-22T04:10:13.487Z,94.22
2017-12-22T04:12:39.251Z,94.41
2017-12-22T04:15:05.011Z,94.54
2017-12-22T04:17:30.756Z,94.67
2017-12-22T04:19:56.497Z,94.79
2017-12-22T04:22:22.239Z,94.80
2017-12-22T04:24:47.985Z,95.01
2017-12-22T04:27:13.727Z,95.08
2017-12-22T04:29:39.466Z,95.24
2017-12-22T04:32:05.219Z,95.05
2017-12-22T04:34:30.955Z,95.05
2017-12-22T04:36:56.694Z,94.57
2017-12-22T04:39:22.439Z,94.38
2017-12-22T04:41:48.195Z,94.33
2017-12-22T04:44:14.605Z,94.32
2017-12-22T04:46:40.359Z,94.26
2017-12-22T04:49:06.128Z,94.30
2017-12-22T04:51:31.871Z,94.41
2017-12-22T04:53:57.631Z,94.37
2017-12-22T04:56:23.372Z,94.28
2017-12-22T04:58:49.128Z,93.44
2017-12-22T05:01:14.867Z,92.94
2017-12-22T05:03:40.624Z,92.96
2017-12-22T05:06:06.375Z,93.25
2017-12-22T05:08:32.118Z,93.53
2017-12-22T05:10:57.872Z,93.63
2017-12-22T05:13:23.630Z,93.82
2017-12-22T05:15:49.392Z,93.83
2017-12-22T05:18:15.126Z,93.92
2017-12-22T05:20:40.858Z,94.13
2017-12-22T05:23:06.579Z,94.37
2017-12-22T05:25:32.322Z,94.60
2017-12-22T05:27:58.076Z,94.81
2017-12-22T05:30:23.835Z,94.97
2017-12-22T05:32:49.575Z,94.98
2017-12-22T05:35:15.339Z,95.10
2017-12-22T05:37:41.078Z,95.01
2017-12-22T05:40:06.843Z,95.10
2017-12-22T05:42:32.600Z,95.12
2017-12-22T05:44:58.360Z,95.02
2017-12-22T05:47:24.120Z,95.02
2017-12-22T05:49:49.893Z,94.97
2017-12-22T05:52:15.643Z,94.95
2017-12-22T05:54:41.401Z,94.92
2017-12-22T05:57:07.165Z,94.75
2017-12-22T05:59:32.914Z,94.70
2017-12-22T06:01:58.671Z,94.67
2017-12-22T06:04:24.443Z,94.60
2017-12-22T06:06:50.204Z,94.43
2017-12-22T06:09:15.955Z,94.41
2017-12-22T06:11:41.703Z,94.33
2017-12-22T06:14:07.453Z,94.34
2017-12-22T06:16:33.215Z,94.32
2017-12-22T06:18:58.967Z,94.19
2017-12-22T06:21:24.722Z,94.15
2017-12-22T06:23:50.471Z,94.22
2017-12-22T06:26:16.235Z,94.17
2017-12-22T06:28:41.988Z,94.23
2017-12-22T06:31:07.743Z,94.17
2017-12-22T06:33:33.502Z,94.20
2017-12-22T06:35:59.262Z,94.23
2017-12-22T06:38:25.028Z,94.29
2017-12-22T06:40:50.797Z,94.25
2017-12-22T06:43:16.560Z,94.28
2017-12-22T06:45:42.318Z,94.28
2017-12-22T06:48:08.094Z,94.33
2017-12-22T06:50:33.848Z,94.35
2017-12-22T06:52:59.616Z,94.39
2017-12-22T06:55:25.385Z,94.48
2017-12-22T06:57:51.164Z,94.52
2017-12-22T07:00:16.920Z,94.56
2017-12-22T07:02:42.682Z,94.72
2017-12-22T07:05:08.436Z,94.75
2017-12-22T07:07:34.214Z,94.79
2017-12-22T07:09:59.962Z,94.81
2017-12-22T07:12:25.743Z,94.85
2017-12-22T07:14:51.499Z,94.96
2017-12-22T07:17:17.277Z,95.02
2017-12-22T07:19:43.030Z,95.09
2017-12-22T07:22:08.800Z,95.24
2017-12-22T07:24:34.558Z,95.30
2017-12-22T07:27:00.317Z,95.38
2017-12-22T07:29:26.084Z,95.43
2017-12-22T07:31:51.831Z,95.47
2017-12-22T07:34:17.587Z,95.61
2017-12-22T07:36:43.355Z,95.72
2017-12-22T07:39:09.131Z,95.74
2017-12-22T07:41:34.902Z,95.65
2017-12-22T07:44:00.672Z,95.50
2017-12-22T07:46:26.445Z,95.32
2017-12-22T07:48:52.212Z,95.14
2017-12-22T07:51:17.950Z,95.04
2017-12-22T07:53:43.707Z,94.88
2017-12-22T07:56:09.484Z,94.79
2017-12-22T07:58:35.247Z,94.48
2017-12-22T08:01:01.016Z,94.17
2017-12-22T08:03:26.796Z,94.01
2017-12-22T08:05:52.559Z,94.01
2017-12-22T08:08:18.327Z,93.96
2017-12-22T08:10:44.095Z,93.98
2017-12-22T08:13:09.859Z,94.15
2017-12-22T08:15:35.627Z,93.90
2017-12-22T08:18:01.382Z,93.98
2017-12-22T08:20:27.158Z,94.00
2017-12-22T08:22:52.909Z,93.81
2017-12-22T08:25:18.666Z,93.62
2017-12-22T08:27:44.426Z,93.67
2017-12-22T08:30:10.182Z,93.83
2017-12-22T08:32:35.960Z,94.09
2017-12-22T08:35:01.725Z,94.25
2017-12-22T08:37:27.499Z,94.23
2017-12-22T08:39:53.252Z,94.10
2017-12-22T08:42:19.026Z,94.10
2017-12-22T08:44:44.775Z,94.08
2017-12-22T08:47:10.518Z,94.14
2017-12-22T08:49:36.264Z,94.05
2017-12-22T08:52:02.037Z,94.02
2017-12-22T08:54:27.775Z,94.00
2017-12-22T08:56:53.544Z,94.00
2017-12-22T08:59:19.296Z,93.75
2017-12-22T09:01:45.035Z,93.76
2017-12-22T09:04:10.783Z,93.37
2017-12-22T09:06:36.519Z,93.29
2017-12-22T09:09:02.284Z,93.22
2017-12-22T09:11:28.039Z,93.10
2017-12-22T09:13:53.786Z,92.99
2017-12-22T09:16:19.519Z,92.93
2017-12-22T09:18:45.266Z,92.54
2017-12-22T09:21:10.991Z,92.21
2017-12-22T09:23:36.746Z,92.17
2017-12-22T09:26:02.499Z,92.03
2017-12-22T09:28:28.255Z,91.33
2017-12-22T09:30:54.009Z,91.16
2017-12-22T09:33:19.759Z,91.15
2017-12-22T09:35:45.486Z,90.93
2017-12-22T09:38:11.231Z,91.08
2017-12-22T09:40:36.987Z,91.31
2017-12-22T09:43:09.783Z,91.25
2017-12-22T09:45:35.532Z,91.18
2017-12-22T09:48:01.329Z,90.85
2017-12-22T09:50:27.060Z,90.65
2017-12-22T09:52:52.808Z,90.81
2017-12-22T09:55:18.558Z,90.59
2017-12-22T09:57:44.369Z,90.35
2017-12-22T10:00:10.096Z,90.45
2017-12-22T10:02:35.846Z,90.35
2017-12-22T10:05:01.587Z,90.49
2017-12-22T10:07:27.331Z,90.29
2017-12-22T10:09:53.085Z,90.54
2017-12-22T10:12:18.831Z,90.39
2017-12-22T10:14:44.580Z,90.09
2017-12-22T10:17:10.321Z,90.16
2017-12-22T10:19:36.082Z,90.05
2017-12-22T10:22:01.836Z,90.09
2017-12-22T10:24:27.596Z,89.96
2017-12-22T10:26:53.347Z,89.97
2017-12-22T10:29:19.087Z,90.30
2017-12-22T10:31:44.844Z,90.21
2017-12-22T10:34:10.586Z,90.30
2017-12-22T10:36:36.344Z,90.10
2017-12-22T10:39:02.107Z,90.05
2017-12-22T10:41:27.897Z,89.94
2017-12-22T10:43:53.649Z,90.10
2017-12-22T10:46:19.420Z,90.03
2017-12-22T10:48:45.195Z,90.13
2017-12-22T10:51:10.960Z,89.84
2017-12-22T10:53:36.719Z,89.78
2017-12-22T10:56:02.487Z,89.77
2017-12-22T10:58:28.227Z,89.68
2017-12-22T11:00:54.006Z,89.43
2017-12-22T11:03:19.786Z,89.32
2017-12-22T11:05:45.541Z,89.09
2017-12-22T11:08:11.325Z,89.02
2017-12-22T11:10:37.491Z,88.58
2017-12-22T11:13:03.255Z,88.45
2017-12-22T11:15:29.027Z,88.20
2017-12-22T11:17:54.787Z,88.46
2017-12-22T11:20:20.556Z,87.89
2017-12-22T11:22:46.327Z,87.93
2017-12-22T11:25:12.093Z,88.21
2017-12-22T11:27:37.846Z,87.86
2017-12-22T11:30:03.603Z,87.92
2017-12-22T11:32:29.377Z,88.09
2017-12-22T11:34:55.131Z,87.60
2017-12-22T11:37:20.905Z,87.53
2017-12-22T11:39:46.662Z,87.26
2017-12-22T11:42:12.432Z,87.39
2017-12-22T11:44:38.187Z,87.46
2017-12-22T11:47:03.944Z,86.90
2017-12-22T11:49:29.684Z,87.13
2017-12-22T11:51:55.411Z,87.23
2017-12-22T11:54:21.175Z,86.88
2017-12-22T11:56:46.920Z,87.06
2017-12-22T11:59:12.671Z,86.72
2017-12-22T12:01:38.411Z,86.54
2017-12-22T12:04:04.174Z,86.83
2017-12-22T12:06:29.910Z,86.83
2017-12-22T12:08:55.669Z,86.60
2017-12-22T12:11:21.412Z,86.14
2017-12-22T12:13:47.155Z,85.79
2017-12-22T12:16:12.901Z,85.52
2017-12-22T12:18:38.646Z,85.60
2017-12-22T12:21:04.420Z,85.77
2017-12-22T12:23:30.188Z,85.65
2017-12-22T12:25:55.926Z,85.67
2017-12-22T12:28:21.693Z,85.89
2017-12-22T12:30:47.431Z,85.55
2017-12-22T12:33:13.175Z,85.65
2017-12-22T12:35:38.931Z,86.13
2017-12-22T12:38:04.670Z,85.88
2017-12-22T12:40:30.444Z,85.74
2017-12-22T12:42:56.216Z,86.46
2017-12-22T12:45:21.988Z,86.35
2017-12-22T12:47:47.738Z,85.70
2017-12-22T12:50:13.488Z,86.29
2017-12-22T12:52:39.252Z,86.36
2017-12-22T12:55:05.042Z,86.27
2017-12-22T12:57:30.799Z,86.77
2017-12-22T12:59:56.903Z,86.50
2017-12-22T13:02:22.684Z,86.94
2017-12-22T13:04:48.443Z,86.59
2017-12-22T13:07:14.232Z,86.90
2017-12-22T13:09:40.015Z,86.47
2017-12-22T13:12:05.811Z,86.67
2017-12-22T13:14:31.640Z,87.03
2017-12-22T13:16:57.427Z,86.90
2017-12-22T13:19:23.188Z,87.21
2017-12-22T13:21:48.992Z,87.28
2017-12-22T13:24:14.748Z,87.28
2017-12-22T13:26:40.536Z,87.05
2017-12-22T13:29:06.328Z,87.29
2017-12-22T13:31:32.115Z,87.64
2017-12-22T13:33:57.871Z,87.52
2017-12-22T13:36:23.622Z,87.77
2017-12-22T13:38:49.400Z,88.05
2017-12-22T13:41:15.161Z,88.26
2017-12-22T13:43:40.939Z,88.18
2017-12-22T13:46:06.695Z,88.28
2017-12-22T13:48:32.556Z,88.37
2017-12-22T13:50:58.479Z,88.82
2017-12-22T13:53:24.220Z,88.92
2017-12-22T13:55:49.967Z,88.72
2017-12-22T13:58:15.720Z,89.04
2017-12-22T14:00:42.286Z,88.90
2017-12-22T14:03:08.844Z,89.34
2017-12-22T14:05:35.675Z,89.31
2017-12-22T14:08:02.600Z,89.09
2017-12-22T14:10:28.474Z,89.36
2017-12-22T14:12:55.154Z,89.51
2017-12-22T14:15:21.868Z,89.74
2017-12-22T14:17:48.721Z,90.08
2017-12-22T14:20:15.481Z,89.74
2017-12-22T14:22:42.392Z,89.96
2017-12-22T14:25:08.191Z,89.94
2017-12-22T14:27:34.820Z,90.19
2017-12-22T14:30:01.602Z,90.26
2017-12-22T14:32:28.275Z,90.60
2017-12-22T14:34:55.234Z,90.79
2017-12-22T14:37:21.743Z,90.74
2017-12-22T14:39:48.388Z,90.43
2017-12-22T14:42:15.341Z,90.67
2017-12-22T14:44:41.639Z,90.86
2017-12-22T14:47:07.444Z,91.21
2017-12-22T14:49:33.236Z,90.85
2017-12-22T14:51:59.041Z,91.14
2017-12-22T14:54:25.176Z,91.18
2017-12-22T14:56:51.019Z,91.30
2017-12-22T14:59:23.860Z,91.53
2017-12-22T15:01:49.632Z,91.62
2017-12-22T15:04:15.423Z,91.64
2017-12-22T15:06:42.262Z,91.55
2017-12-22T15:09:08.072Z,91.66
2017-12-22T15:11:33.890Z,91.61
2017-12-22T15:13:59.647Z,91.82
2017-12-22T15:16:25.484Z,92.03
2017-12-22T15:18:51.284Z,92.11
2017-12-22T15:21:17.415Z,92.17
2017-12-22T15:23:43.241Z,92.10
2017-12-22T15:26:09.284Z,91.76
2017-12-22T15:28:35.031Z,92.57
2017-12-22T15:31:00.797Z,92.86
2017-12-22T15:33:26.562Z,92.93
2017-12-22T15:35:52.423Z,93.00
2017-12-22T15:38:18.230Z,93.04
2017-12-22T15:40:44.004Z,93.08
2017-12-22T15:43:09.764Z,93.31
2017-12-22T15:45:35.581Z,93.50
2017-12-22T15:48:01.303Z,93.94
2017-12-22T15:50:27.067Z,93.73
2017-12-22T15:52:52.836Z,93.93
2017-12-22T15:55:18.596Z,93.74
2017-12-22T15:57:44.387Z,93.85
2017-12-22T16:00:10.148Z,94.32
2017-12-22T16:02:35.911Z,94.13
2017-12-22T16:05:01.701Z,94.39
2017-12-22T16:07:27.454Z,94.27
2017-12-22T16:09:53.210Z,94.13
2017-12-22T16:12:18.975Z,93.98
2017-12-22T16:14:44.750Z,94.34
2017-12-22T16:17:10.514Z,94.26
2017-12-22T16:19:36.279Z,94.31
2017-12-22T16:22:02.054Z,94.41
2017-12-22T16:24:27.804Z,94.26
2017-12-22T16:26:53.556Z,94.28
2017-12-22T16:29:19.315Z,94.46
2017-12-22T16:31:45.081Z,94.41
2017-12-22T16:34:10.839Z,94.58
2017-12-22T16:36:36.590Z,94.71
2017-12-22T16:39:02.386Z,94.88
2017-12-22T16:41:28.143Z,94.94
2017-12-22T16:43:53.906Z,94.57
2017-12-22T16:46:19.655Z,94.75
2017-12-22T16:48:45.404Z,94.70
2017-12-22T16:51:11.143Z,94.85
2017-12-22T16:53:36.891Z,94.87
2017-12-22T16:56:02.639Z,95.03
2017-12-22T16:58:28.379Z,94.62
2017-12-22T17:00:54.122Z,94.79
2017-12-22T17:03:19.890Z,94.95
2017-12-22T17:05:45.640Z,94.82
2017-12-22T17:08:11.390Z,95.16
2017-12-22T17:10:37.911Z,94.54
2017-12-22T17:13:03.671Z,94.69
2017-12-22T17:15:29.407Z,94.12
2017-12-22T17:17:55.154Z,94.42
2017-12-22T17:20:20.904Z,94.72
2017-12-22T17:22:46.644Z,94.43
2017-12-22T17:25:12.406Z,94.62
2017-12-22T17:27:38.143Z,94.58
2017-12-22T17:30:03.904Z,94.57
2017-12-22T17:32:29.636Z,94.77
2017-12-22T17:34:55.382Z,94.84
2017-12-22T17:37:21.134Z,94.57
2017-12-22T17:39:47.770Z,94.05
2017-12-22T17:42:13.584Z,94.73
2017-12-22T17:44:39.335Z,94.57
2017-12-22T17:47:05.081Z,95.02
2017-12-22T17:49:30.827Z,95.22
2017-12-22T17:51:56.572Z,95.21
2017-12-22T17:54:22.320Z,95.44
2017-12-22T17:56:48.055Z,94.80
2017-12-22T17:59:13.829Z,94.90
2017-12-22T18:01:39.584Z,95.31
2017-12-22T18:04:05.337Z,95.31
2017-12-22T18:06:31.103Z,95.38
2017-12-22T18:08:56.855Z,95.29
2017-12-22T18:11:22.640Z,95.28
2017-12-22T18:13:48.387Z,95.22
2017-12-22T18:16:14.134Z,95.17
2017-12-22T18:18:39.883Z,94.52
2017-12-22T18:21:05.639Z,95.22
2017-12-22T18:23:31.401Z,94.94
2017-12-22T18:25:57.151Z,94.71
2017-12-22T18:28:22.903Z,94.48
2017-12-22T18:30:48.664Z,94.62
2017-12-22T18:33:14.401Z,94.89
2017-12-22T18:35:40.146Z,94.67
2017-12-22T18:38:05.891Z,94.83
2017-12-22T18:40:31.664Z,94.48
2017-12-22T18:42:57.423Z,94.56
2017-12-22T18:45:23.175Z,94.37
2017-12-22T18:47:48.911Z,94.26
2017-12-22T18:50:14.649Z,94.32
2017-12-22T18:52:40.404Z,94.41
2017-12-22T18:55:06.151Z,94.49
2017-12-22T18:57:31.898Z,94.55
2017-12-22T18:59:57.654Z,94.62
2017-12-22T19:02:23.411Z,94.45
2017-12-22T19:04:49.160Z,94.48
2017-12-22T19:07:14.910Z,94.35
2017-12-22T19:09:40.666Z,94.18
2017-12-22T19:12:06.415Z,94.31
2017-12-22T19:14:32.159Z,94.23
2017-12-22T19:16:57.923Z,94.59
2017-12-22T19:19:23.686Z,94.42
2017-12-22T19:21:49.447Z,94.21
2017-12-22T19:24:15.179Z,94.32
2017-12-22T19:26:40.936Z,94.31
2017-12-22T19:29:06.692Z,94.31
2017-12-22T19:31:32.483Z,94.37
2017-12-22T19:33:58.232Z,94.03
2017-12-22T19:36:23.978Z,93.88
2017-12-22T19:38:49.715Z,93.94
2017-12-22T19:41:15.472Z,94.01
2017-12-22T19:43:41.232Z,93.74
2017-12-22T19:46:06.990Z,93.96
2017-12-22T19:48:32.751Z,93.89
2017-12-22T19:50:58.495Z,93.88
2017-12-22T19:53:24.256Z,93.74
2017-12-22T19:55:50.004Z,93.67
2017-12-22T19:58:15.762Z,93.62
2017-12-22T20:00:41.502Z,93.72
2017-12-22T20:03:19.564Z,93.64
2017-12-22T20:05:45.290Z,93.89
2017-12-22T20:08:11.039Z,93.75
2017-12-22T20:10:36.791Z,93.81
2017-12-22T20:13:02.559Z,93.79
2017-12-22T20:15:28.311Z,93.55
2017-12-22T20:17:54.091Z,93.56
2017-12-22T20:20:19.892Z,93.49
2017-12-22T20:22:45.644Z,93.62
2017-12-22T20:25:11.405Z,93.89
2017-12-22T20:27:37.179Z,94.00
2017-12-22T20:30:03.019Z,93.63
2017-12-22T20:32:28.768Z,93.62
2017-12-22T20:34:54.515Z,93.64
2017-12-22T20:37:20.263Z,93.50
2017-12-22T20:39:45.999Z,93.83
2017-12-22T20:42:11.744Z,93.89
2017-12-22T20:44:37.483Z,93.77
2017-12-22T20:47:03.216Z,93.60
2017-12-22T20:49:28.963Z,93.43
2017-12-22T20:51:54.826Z,93.45
2017-12-22T20:54:20.588Z,93.46
2017-12-22T20:56:46.344Z,93.43
2017-12-22T20:59:12.102Z,93.59
2017-12-22T21:01:37.856Z,93.60
2017-12-22T21:04:03.600Z,93.62
2017-12-22T21:06:29.338Z,93.64
2017-12-22T21:08:55.075Z,93.77
2017-12-22T21:11:20.828Z,93.93
2017-12-22T21:13:46.563Z,93.91
2017-12-22T21:16:12.315Z,93.89
2017-12-22T21:18:38.051Z,93.81
2017-12-22T21:21:03.795Z,94.03
2017-12-22T21:23:29.534Z,94.23
2017-12-22T21:25:55.306Z,94.57
2017-12-22T21:28:21.051Z,94.68
2017-12-22T21:30:46.814Z,94.86
2017-12-22T21:33:12.554Z,94.82
2017-12-22T21:35:38.306Z,94.98
2017-12-22T21:38:04.051Z,95.09
2017-12-22T21:40:29.837Z,95.22
2017-12-22T21:42:55.607Z,95.24
2017-12-22T21:45:21.376Z,95.37
2017-12-22T21:47:47.138Z,95.45
2017-12-22T21:50:12.895Z,95.51
2017-12-22T21:52:38.666Z,95.76
2017-12-22T21:55:04.431Z,95.71
2017-12-22T21:57:30.202Z,95.65
2017-12-22T21:59:55.959Z,95.69
2017-12-22T22:02:21.718Z,95.87
2017-12-22T22:04:47.470Z,96.00
2017-12-22T22:07:13.235Z,95.97
2017-12-22T22:09:38.987Z,96.09
2017-12-22T22:12:04.764Z,96.20
2017-12-22T22:14:30.515Z,96.27
2017-12-22T22:16:56.295Z,96.32
2017-12-22T22:19:22.047Z,96.38
2017-12-22T22:21:47.815Z,96.36
2017-12-22T22:24:13.588Z,96.32
2017-12-22T22:26:39.355Z,96.36
2017-12-22T22:29:05.120Z,96.31
2017-12-22T22:31:30.874Z,96.26
2017-12-22T22:33:56.626Z,96.10
2017-12-22T22:36:22.380Z,96.10
2017-12-22T22:38:48.138Z,96.14
2017-12-22T22:41:13.916Z,96.22
2017-12-22T22:43:39.695Z,96.27
2017-12-22T22:46:05.439Z,96.26
2017-12-22T22:48:31.188Z,96.18
2017-12-22T22:50:56.949Z,96.16
2017-12-22T22:53:22.715Z,96.12
2017-12-22T22:55:48.476Z,96.22
2017-12-22T22:58:14.241Z,96.24
2017-12-22T23:00:40.050Z,96.24
2017-12-22T23:03:05.815Z,96.29
2017-12-22T23:05:31.572Z,96.27
2017-12-22T23:07:57.343Z,96.27
2017-12-22T23:10:23.095Z,96.13
2017-12-22T23:12:48.876Z,95.90
2017-12-22T23:15:14.622Z,95.85
2017-12-22T23:17:40.369Z,95.88
2017-12-22T23:20:06.129Z,95.79
2017-12-22T23:22:31.892Z,95.77
2017-12-22T23:24:57.668Z,95.65
2017-12-22T23:27:23.424Z,95.48
2017-12-22T23:29:49.187Z,95.40
2017-12-22T23:32:14.943Z,95.26
2017-12-22T23:34:40.723Z,95.04
2017-12-22T23:37:06.475Z,95.00
2017-12-22T23:39:32.242Z,94.88
2017-12-22T23:41:57.987Z,94.85
2017-12-22T23:44:23.735Z,94.78
2017-12-22T23:46:49.475Z,94.50
2017-12-22T23:49:15.246Z,94.47
2017-12-22T23:51:40.980Z,94.70
2017-12-22T23:54:06.775Z,94.65
2017-12-22T23:56:32.519Z,94.67
2017-12-22T23:58:58.248Z,94.71
